Strona główna
METAR-TAF:

METAR-TAF

Lotnisko :

Port lotniczy Tawau

Tawau, Malezja

Szerokość geograficzna: 04-16N, Długość geograficzna: 117-53E, wysokość: 18 m

Aktualna obserwacja pogody

Raport powstał 46 minut temu, godzina 22:00 UTC
Cisza
Temperatura 24°C
Wilgotność 100%
Ciśnienie 1011 hPa
Widzialność 10 km lub więcej
Mało chmury na wysokości 1700 ft

METAR: WBKW 102200Z 00000KT 9999 FEW017 24/24 Q1011

czas: 06:46 (22:46 UTC)

Prognoza

Raport powstał 5 godziny i 46 minut temu, godzina 17:00 UTC
Prognoza ważna od 10 godzina 18 UTC do 11 godzina 18 UTC
Wiatr 3 kt z kierunków zmiennych
Widzialność 10 km lub więcej
Mało chmury na wysokości 1700 ft
Przejściowo
od 11 godzina 04 UTC do 11 godzina 08 UTC
Widzialność: 7000 m
Mało chmury na wysokości 1300 ft
Mało chmury na wysokości 1600 ft, Cumulonimbus.
Rozproszone chmury na wysokości 3500 ft
burza, deszcz

TAF: WBKW 101700Z 1018/1118 VRB03KT 9999 FEW017 TEMPO 1104/1108 7000 TSRA FEW013 FEW016CB SCT035

Obserwacja i prognoza pogody dla ponad 4000 lotnisk (raport METAR i TAF).

Dostępne stacje oznaczono żółtymi i czerwonymi punktami na mapie.

Najedź kursorem aby zobaczyć nazwę stacji.

Kliknij aby zobaczyć obserwacje i prognozy pogody.

Aby zmienić mapę: kliknij na zielony przycisk z czarnym krzyżykiem, aby powiększyć; na zielony przycisk z myślnikiem, aby pomniejszyć; na zielone strzałki, aby przejść do map sąsiednich.


METAR-TAF: